createdAt,value
2022-08-01T00:01:11.797Z,24.67
2022-08-01T00:03:38.446Z,24.36
2022-08-01T00:06:05.193Z,24.51
2022-08-01T00:08:32.100Z,24.65
2022-08-01T00:11:01.436Z,24.61
2022-08-01T00:13:28.825Z,24.83
2022-08-01T00:15:54.923Z,24.48
2022-08-01T00:18:20.904Z,24.36
2022-08-01T00:20:46.888Z,24.66
2022-08-01T00:23:13.129Z,24.78
2022-08-01T00:25:39.120Z,24.61
2022-08-01T00:28:05.088Z,24.39
2022-08-01T00:30:31.103Z,24.52
2022-08-01T00:32:57.064Z,24.67
2022-08-01T00:35:23.418Z,24.71
2022-08-01T00:37:49.436Z,24.63
2022-08-01T00:40:15.423Z,24.53
2022-08-01T00:42:43.656Z,24.33
2022-08-01T01:06:54.290Z,23.67
2022-08-01T01:09:20.268Z,23.80
2022-08-01T01:11:46.248Z,23.88
2022-08-01T01:14:12.265Z,23.82
2022-08-01T01:16:38.255Z,23.85
2022-08-01T01:19:04.217Z,23.93
2022-08-01T01:21:30.247Z,23.92
2022-08-01T01:23:56.223Z,23.97
2022-08-01T01:26:22.210Z,23.89
2022-08-01T01:28:48.258Z,23.72
2022-08-01T01:31:14.234Z,23.68
2022-08-01T01:33:47.255Z,23.73
2022-08-01T01:36:13.697Z,23.64
2022-08-01T01:38:40.380Z,23.24
2022-08-01T01:41:07.146Z,23.46
2022-08-01T01:43:33.708Z,23.28
2022-08-01T01:46:00.346Z,23.49
2022-08-01T01:48:27.141Z,23.52
2022-08-01T01:50:53.963Z,23.22
2022-08-01T01:53:19.965Z,23.51
2022-08-01T01:55:49.381Z,23.38
2022-08-01T01:58:15.919Z,23.33
2022-08-01T02:00:41.887Z,23.23
2022-08-01T02:03:08.085Z,23.34
2022-08-01T02:05:34.140Z,23.38
2022-08-01T02:08:00.487Z,23.18
2022-08-01T02:10:28.715Z,23.12
2022-08-01T02:12:54.913Z,23.12
2022-08-01T02:15:20.911Z,23.00
2022-08-01T02:17:46.886Z,23.09
2022-08-01T02:20:12.916Z,23.26
2022-08-01T02:22:38.905Z,23.38
2022-08-01T02:25:04.872Z,23.27
2022-08-01T02:27:30.901Z,23.18
2022-08-01T02:29:56.882Z,23.25
2022-08-01T02:32:23.237Z,23.43
2022-08-01T02:34:49.510Z,23.34
2022-08-01T02:37:16.263Z,23.41
2022-08-01T02:39:42.943Z,23.49
2022-08-01T02:42:09.133Z,23.45
2022-08-01T02:44:35.455Z,23.52
2022-08-01T02:47:01.459Z,23.45
2022-08-01T02:49:27.553Z,23.48
2022-08-01T02:51:53.583Z,23.53
2022-08-01T02:54:19.567Z,23.27
2022-08-01T02:56:45.581Z,22.82
2022-08-01T02:59:11.552Z,23.30
2022-08-01T03:01:39.868Z,23.33
2022-08-01T03:04:08.101Z,23.33
2022-08-01T03:06:34.075Z,23.28
2022-08-01T03:09:00.212Z,23.32
2022-08-01T03:11:26.235Z,23.33
2022-08-01T03:13:52.209Z,23.21
2022-08-01T03:16:18.175Z,23.19
2022-08-01T03:18:44.247Z,23.17
2022-08-01T03:21:10.223Z,23.10
2022-08-01T03:23:37.873Z,23.11
2022-08-01T03:26:04.360Z,23.07
2022-08-01T03:28:30.332Z,23.28
2022-08-01T03:30:56.899Z,23.01
2022-08-01T03:33:23.812Z,23.07
2022-08-01T03:35:49.782Z,23.14
2022-08-01T03:38:16.563Z,23.02
2022-08-01T03:40:42.864Z,22.94
2022-08-01T03:43:08.852Z,22.93
2022-08-01T03:45:34.816Z,22.83
2022-08-01T03:48:00.837Z,22.92
2022-08-01T03:50:26.802Z,22.89
2022-08-01T03:52:52.777Z,22.73
2022-08-01T03:55:18.805Z,22.93
2022-08-01T03:57:44.776Z,22.89
2022-08-01T04:00:10.793Z,22.90
2022-08-01T04:02:36.803Z,23.10
2022-08-01T04:05:02.786Z,22.99
2022-08-01T04:07:28.749Z,22.90
2022-08-01T04:09:54.776Z,22.91
2022-08-01T04:12:20.752Z,22.99
2022-08-01T04:14:46.721Z,23.16
2022-08-01T04:17:12.735Z,23.03
2022-08-01T04:19:38.698Z,23.15
2022-08-01T04:22:04.930Z,23.23
2022-08-01T04:24:31.068Z,23.23
2022-08-01T04:26:57.054Z,23.14
2022-08-01T04:29:23.452Z,23.00
2022-08-01T04:31:49.474Z,23.00
2022-08-01T04:34:15.435Z,22.85
2022-08-01T04:36:41.411Z,22.83
2022-08-01T04:39:07.433Z,23.01
2022-08-01T04:41:33.407Z,23.22
2022-08-01T04:43:59.370Z,23.50
2022-08-01T04:46:25.420Z,23.50
2022-08-01T04:48:51.460Z,23.33
2022-08-01T04:51:17.490Z,23.43
2022-08-01T04:53:43.510Z,23.45
2022-08-01T04:56:09.477Z,23.46
2022-08-01T04:58:35.455Z,23.67
2022-08-01T05:01:01.579Z,23.73
2022-08-01T05:03:27.625Z,23.89
2022-08-01T05:05:53.587Z,24.01
2022-08-01T05:08:20.543Z,24.49
2022-08-01T05:10:47.243Z,24.77
2022-08-01T05:13:13.267Z,25.18
2022-08-01T05:15:39.349Z,25.59
2022-08-01T05:18:05.323Z,25.80
2022-08-01T05:20:33.789Z,26.01
2022-08-01T05:22:59.813Z,25.96
2022-08-01T05:25:56.892Z,25.90
2022-08-01T05:28:11.800Z,25.66
2022-08-01T05:30:44.928Z,25.33
2022-08-01T05:33:10.910Z,25.25
2022-08-01T05:35:48.801Z,25.33
2022-08-01T05:38:15.288Z,25.12
2022-08-01T05:40:41.312Z,25.04
2022-08-01T05:43:07.290Z,24.95
2022-08-01T05:45:33.277Z,25.15
2022-08-01T05:47:59.340Z,25.14
2022-08-01T05:50:25.320Z,25.12
2022-08-01T05:52:51.316Z,25.13
2022-08-01T05:55:18.251Z,25.13
2022-08-01T05:57:44.269Z,25.04
2022-08-01T06:00:10.276Z,25.10
2022-08-01T06:02:36.453Z,25.19
2022-08-01T06:05:02.474Z,25.17
2022-08-01T06:07:28.455Z,25.08
2022-08-01T06:09:54.483Z,25.23
2022-08-01T06:12:20.447Z,25.26
2022-08-01T06:14:46.422Z,25.17
2022-08-01T06:17:12.451Z,25.29
2022-08-01T06:19:38.423Z,25.25
2022-08-01T06:22:04.615Z,25.09
2022-08-01T06:24:30.800Z,25.55
2022-08-01T06:26:56.780Z,25.47
2022-08-01T06:29:23.109Z,25.48
2022-08-01T06:31:49.163Z,25.64
2022-08-01T06:34:15.133Z,25.55
2022-08-01T06:36:41.099Z,25.73
2022-08-01T06:39:07.131Z,25.65
2022-08-01T06:41:33.108Z,25.74
2022-08-01T06:43:59.077Z,25.86
2022-08-01T06:46:30.535Z,25.91
2022-08-01T06:48:58.708Z,25.93
2022-08-01T06:51:24.910Z,26.04
2022-08-01T06:53:51.818Z,26.07
2022-08-01T06:56:17.819Z,26.07
2022-08-01T06:58:43.832Z,25.96
2022-08-01T07:01:09.938Z,26.04
2022-08-01T07:03:53.588Z,26.05
2022-08-01T07:06:32.415Z,26.07
2022-08-01T07:09:03.995Z,26.17
2022-08-01T07:11:33.350Z,26.23
2022-08-01T07:13:59.477Z,26.22
2022-08-01T07:16:25.457Z,26.38
2022-08-01T07:18:51.466Z,26.53
2022-08-01T07:21:40.155Z,26.49
2022-08-01T07:24:13.325Z,26.58
2022-08-01T07:26:40.771Z,26.75
2022-08-01T07:29:18.822Z,26.90
2022-08-01T07:31:45.560Z,27.31
2022-08-01T07:34:11.543Z,27.80
2022-08-01T07:36:37.576Z,27.80
2022-08-01T07:39:03.589Z,27.91
2022-08-01T07:41:53.593Z,28.01
2022-08-01T07:44:15.569Z,28.24
2022-08-01T07:46:41.646Z,28.62
2022-08-01T07:49:07.960Z,28.89
2022-08-01T07:51:34.014Z,29.00
2022-08-01T07:53:59.985Z,29.13
2022-08-01T07:56:25.962Z,29.55
2022-08-01T07:58:52.013Z,29.43
2022-08-01T08:01:18.080Z,29.62
2022-08-01T08:03:44.104Z,29.42
2022-08-01T08:06:10.495Z,29.42
2022-08-01T08:08:36.522Z,29.55
2022-08-01T08:11:02.534Z,29.60
2022-08-01T08:13:28.592Z,29.69
2022-08-01T08:15:54.556Z,29.60
2022-08-01T08:18:20.523Z,29.81
2022-08-01T08:20:46.553Z,29.47
2022-08-01T08:23:16.091Z,29.88
2022-08-01T08:26:02.094Z,29.77
2022-08-01T08:28:28.321Z,30.10
2022-08-01T08:30:54.369Z,30.22
2022-08-01T08:33:20.394Z,30.82
2022-08-01T08:35:53.862Z,31.13
2022-08-01T08:38:20.382Z,31.10
2022-08-01T08:40:54.546Z,31.78
2022-08-01T08:43:20.564Z,32.21
2022-08-01T08:45:59.666Z,32.25
2022-08-01T08:48:27.904Z,32.42
2022-08-01T08:50:54.118Z,32.75
2022-08-01T08:53:20.083Z,32.58
2022-08-01T08:55:56.285Z,32.83
2022-08-01T08:58:27.584Z,32.95
2022-08-01T09:00:57.806Z,33.00
2022-08-01T09:03:23.875Z,32.78
2022-08-01T09:05:49.904Z,33.08
2022-08-01T09:08:15.919Z,32.98
2022-08-01T09:10:41.893Z,33.41
2022-08-01T09:13:07.879Z,33.14
2022-08-01T09:15:34.084Z,32.15
2022-08-01T09:18:00.097Z,32.63
2022-08-01T09:20:26.727Z,32.40
2022-08-01T09:22:52.770Z,32.76
2022-08-01T09:25:18.749Z,32.62
2022-08-01T09:27:46.428Z,32.96
2022-08-01T09:30:12.743Z,33.41
2022-08-01T09:32:38.712Z,33.81
2022-08-01T09:35:04.732Z,33.26
2022-08-01T09:37:37.507Z,32.96
2022-08-01T09:40:03.655Z,33.20
2022-08-01T09:42:29.681Z,33.51
2022-08-01T09:44:55.728Z,34.23
2022-08-01T09:47:23.466Z,34.37
2022-08-01T09:49:52.186Z,33.05
2022-08-01T09:52:19.183Z,32.73
2022-08-01T09:54:45.869Z,32.56
2022-08-01T09:57:11.946Z,32.51
2022-08-01T09:59:57.407Z,33.14
2022-08-01T10:02:23.938Z,33.06
2022-08-01T10:04:55.792Z,34.08
2022-08-01T10:07:42.748Z,34.97
2022-08-01T10:10:10.156Z,34.53
2022-08-01T10:12:37.477Z,34.13
2022-08-01T10:15:03.456Z,33.41
2022-08-01T10:17:51.325Z,32.83
2022-08-01T10:20:30.596Z,33.23
2022-08-01T10:22:57.312Z,33.49
2022-08-01T10:25:41.938Z,33.52
2022-08-01T10:28:09.539Z,34.01
2022-08-01T10:30:36.362Z,33.93
2022-08-01T10:33:02.441Z,33.99
2022-08-01T10:35:46.593Z,33.75
2022-08-01T10:38:14.153Z,34.42
2022-08-01T10:40:40.259Z,35.06
2022-08-01T10:43:06.584Z,35.77
2022-08-01T10:45:32.636Z,35.19
2022-08-01T10:47:58.690Z,35.27
2022-08-01T10:50:25.902Z,34.68
2022-08-01T10:52:52.307Z,34.58
2022-08-01T10:55:18.332Z,33.69
2022-08-01T10:57:44.320Z,34.19
2022-08-01T11:00:18.843Z,35.14
2022-08-01T11:02:46.400Z,36.15
2022-08-01T11:05:14.280Z,36.03
2022-08-01T11:07:40.582Z,35.60
2022-08-01T11:10:14.591Z,35.57
2022-08-01T11:12:41.152Z,35.17
2022-08-01T11:15:10.089Z,34.92
2022-08-01T11:17:37.481Z,34.96
2022-08-01T11:20:04.452Z,34.88
2022-08-01T11:22:30.641Z,35.05
2022-08-01T11:24:56.624Z,35.02
2022-08-01T11:27:23.477Z,35.20
2022-08-01T11:29:49.792Z,35.90
2022-08-01T11:32:16.787Z,36.90
2022-08-01T11:34:42.815Z,36.24
2022-08-01T11:37:09.049Z,36.38
2022-08-01T11:39:38.809Z,36.21
2022-08-01T11:42:05.126Z,35.76
2022-08-01T11:44:31.275Z,36.35
2022-08-01T11:46:57.245Z,37.01
2022-08-01T11:49:24.415Z,37.10
2022-08-01T11:51:50.693Z,36.77
2022-08-01T11:54:16.668Z,36.98
2022-08-01T11:57:02.184Z,37.43
2022-08-01T11:59:29.332Z,37.95
2022-08-01T12:02:07.330Z,37.22
2022-08-01T12:04:33.687Z,36.87
2022-08-01T12:07:00.260Z,35.89
2022-08-01T12:09:26.411Z,36.16
2022-08-01T12:11:52.396Z,36.33
2022-08-01T12:14:18.372Z,36.82
2022-08-01T12:16:44.395Z,36.78
2022-08-01T12:19:11.736Z,36.38
2022-08-01T12:21:37.848Z,36.15
2022-08-01T12:24:03.878Z,36.29
2022-08-01T12:26:32.291Z,36.33
2022-08-01T12:34:12.357Z,36.35
2022-08-01T12:36:38.340Z,36.60
2022-08-01T12:39:04.315Z,37.06
2022-08-01T12:41:30.335Z,37.49
2022-08-01T12:43:56.407Z,37.36
2022-08-01T12:46:22.831Z,36.94
2022-08-01T12:48:48.960Z,37.31
2022-08-01T12:51:14.984Z,37.31
2022-08-01T12:53:41.746Z,37.66
2022-08-01T12:56:07.891Z,37.65
2022-08-01T12:58:33.868Z,37.53
2022-08-01T13:00:59.896Z,37.36
2022-08-01T13:03:25.919Z,37.52
2022-08-01T13:05:51.894Z,37.72
2022-08-01T13:08:17.870Z,38.05
2022-08-01T13:10:43.903Z,37.07
2022-08-01T13:13:09.868Z,36.94
2022-08-01T13:15:35.839Z,36.93
2022-08-01T13:18:07.624Z,36.86
2022-08-01T13:20:33.607Z,36.52
2022-08-01T13:22:59.584Z,36.40
2022-08-01T13:25:27.543Z,36.58
2022-08-01T13:27:54.193Z,36.25
2022-08-01T13:30:20.958Z,36.13
2022-08-01T13:32:46.979Z,36.17
2022-08-01T13:35:12.961Z,36.07
2022-08-01T13:37:39.340Z,36.07
2022-08-01T13:40:05.641Z,35.86
2022-08-01T13:42:31.707Z,35.81
2022-08-01T13:44:57.683Z,35.78
2022-08-01T13:47:31.564Z,35.68
2022-08-01T13:49:58.455Z,35.54
2022-08-01T13:52:24.482Z,35.66
2022-08-01T13:54:50.490Z,35.62
2022-08-01T13:57:16.928Z,35.61
2022-08-01T13:59:42.943Z,35.52
2022-08-01T14:02:09.077Z,35.77
2022-08-01T14:04:35.384Z,35.69
2022-08-01T14:07:09.593Z,35.76
2022-08-01T14:09:37.864Z,35.74
2022-08-01T14:12:23.988Z,35.76
2022-08-01T14:14:49.973Z,35.96
2022-08-01T14:17:15.967Z,36.41
2022-08-01T14:19:46.153Z,36.72
2022-08-01T14:22:12.363Z,37.04
2022-08-01T14:24:38.964Z,37.22
2022-08-01T14:27:08.633Z,37.25
2022-08-01T14:30:01.240Z,36.76
2022-08-01T14:35:11.735Z,36.33
2022-08-01T14:37:38.905Z,36.25
2022-08-01T14:40:05.030Z,36.18
2022-08-01T14:42:34.041Z,36.14
2022-08-01T14:45:00.021Z,36.32
2022-08-01T14:47:26.494Z,36.27
2022-08-01T14:49:52.559Z,36.16
2022-08-01T14:52:18.584Z,36.00
2022-08-01T14:54:44.572Z,35.85
2022-08-01T14:57:11.571Z,35.58
2022-08-01T14:59:37.536Z,35.22
2022-08-01T15:02:03.642Z,35.31
2022-08-01T15:04:29.756Z,35.47
2022-08-01T15:06:55.723Z,35.45
2022-08-01T15:09:21.734Z,35.37
2022-08-01T15:11:47.756Z,35.45
2022-08-01T15:14:13.741Z,35.46
2022-08-01T15:16:39.737Z,35.66
2022-08-01T15:19:05.739Z,35.77
2022-08-01T15:21:41.824Z,36.08
2022-08-01T15:24:08.247Z,36.39
2022-08-01T15:26:34.211Z,36.71
2022-08-01T15:29:00.187Z,36.91
2022-08-01T15:31:26.221Z,37.24
2022-08-01T15:33:54.463Z,36.32
2022-08-01T15:36:25.687Z,35.49
2022-08-01T15:38:53.404Z,34.83
2022-08-01T15:41:19.407Z,34.51
2022-08-01T15:43:45.563Z,34.11
2022-08-01T15:46:23.350Z,34.20
2022-08-01T15:48:49.449Z,34.77
2022-08-01T15:51:15.480Z,35.03
2022-08-01T15:53:41.509Z,34.51
2022-08-01T15:56:10.417Z,33.94
2022-08-01T15:58:36.383Z,33.71
2022-08-01T16:01:02.424Z,33.51
2022-08-01T16:03:28.408Z,33.18
2022-08-01T16:05:54.378Z,33.33
2022-08-01T16:08:20.396Z,33.97
2022-08-01T16:10:46.363Z,34.26
2022-08-01T16:13:12.331Z,34.96
2022-08-01T16:15:38.397Z,35.65
2022-08-01T16:18:04.384Z,35.21
2022-08-01T16:20:30.361Z,34.40
2022-08-01T16:22:56.991Z,34.71
2022-08-01T16:25:23.320Z,34.07
2022-08-01T16:27:49.310Z,34.23
2022-08-01T16:30:15.339Z,34.02
2022-08-01T16:32:47.526Z,33.48
2022-08-01T16:35:34.583Z,33.09
2022-08-01T16:38:02.515Z,33.03
2022-08-01T16:40:28.531Z,32.86
2022-08-01T16:42:54.619Z,32.56
2022-08-01T16:45:24.578Z,32.67
2022-08-01T16:47:51.572Z,32.71
2022-08-01T16:50:17.938Z,32.75
2022-08-01T16:52:53.892Z,32.97
2022-08-01T16:55:19.868Z,32.58
2022-08-01T16:57:45.845Z,32.35
2022-08-01T17:00:11.892Z,32.57
2022-08-01T17:02:47.483Z,32.89
2022-08-01T17:05:13.558Z,32.56
2022-08-01T17:07:39.549Z,32.51
2022-08-01T17:10:05.530Z,32.73
2022-08-01T17:12:31.566Z,32.85
2022-08-01T17:14:57.560Z,32.68
2022-08-01T17:17:23.537Z,32.39
2022-08-01T17:19:49.567Z,32.19
2022-08-01T17:22:16.268Z,32.18
2022-08-01T17:24:42.238Z,32.16
2022-08-01T17:27:12.489Z,32.42
2022-08-01T17:29:44.107Z,32.52
2022-08-01T17:32:11.185Z,32.09
2022-08-01T17:34:37.166Z,32.35
2022-08-01T17:37:03.249Z,32.46
2022-08-01T17:39:38.498Z,32.43
2022-08-01T17:42:05.112Z,32.36
2022-08-01T17:44:31.135Z,32.27
2022-08-01T17:46:57.118Z,32.23
2022-08-01T17:49:45.212Z,32.14
2022-08-01T17:52:09.287Z,32.04
2022-08-01T17:54:36.181Z,31.94
2022-08-01T17:57:02.163Z,31.88
2022-08-01T17:59:28.973Z,31.78
2022-08-01T18:01:54.988Z,31.74
2022-08-01T18:04:21.044Z,31.60
2022-08-01T18:07:10.580Z,31.48
2022-08-01T18:09:33.359Z,31.35
2022-08-01T18:11:59.420Z,31.33
2022-08-01T18:14:39.779Z,31.33
2022-08-01T18:17:08.276Z,31.25
2022-08-01T18:19:37.826Z,31.08
2022-08-01T18:22:04.081Z,30.97
2022-08-01T18:24:30.095Z,30.90
2022-08-01T18:26:56.091Z,30.83
2022-08-01T18:29:23.269Z,30.78
2022-08-01T18:32:08.363Z,30.58
2022-08-01T18:34:35.267Z,30.45
2022-08-01T18:37:01.232Z,30.42
2022-08-01T18:39:27.305Z,30.33
2022-08-01T18:41:56.176Z,30.25
2022-08-01T18:44:22.540Z,30.34
2022-08-01T18:46:50.236Z,30.32
2022-08-01T18:49:16.287Z,30.27
2022-08-01T18:51:44.726Z,30.24
2022-08-01T18:54:12.700Z,30.28
2022-08-01T18:56:40.069Z,30.33
2022-08-01T18:59:06.029Z,30.20
2022-08-01T19:01:33.583Z,30.08
2022-08-01T19:03:59.749Z,30.04
2022-08-01T19:06:25.735Z,29.99
2022-08-01T19:08:51.781Z,29.95
2022-08-01T19:11:17.752Z,29.86
2022-08-01T19:13:43.723Z,29.77
2022-08-01T19:16:09.743Z,29.82
2022-08-01T19:18:37.663Z,29.83
2022-08-01T19:21:03.631Z,29.71
2022-08-01T19:23:30.307Z,29.44
2022-08-01T19:25:56.316Z,29.40
2022-08-01T19:28:22.309Z,29.39
2022-08-01T19:30:53.408Z,29.48
2022-08-01T19:33:19.697Z,29.39
2022-08-01T19:35:45.679Z,29.22
2022-08-01T19:38:12.708Z,29.14
2022-08-01T19:40:38.680Z,29.03
2022-08-01T19:43:04.652Z,29.14
2022-08-01T19:45:30.708Z,29.25
2022-08-01T19:47:57.935Z,28.84
2022-08-01T19:50:24.147Z,28.86
2022-08-01T19:52:50.167Z,28.87
2022-08-01T19:55:16.138Z,28.64
2022-08-01T19:57:45.666Z,28.72
2022-08-01T20:00:24.081Z,28.55
2022-08-01T20:02:54.112Z,28.37
2022-08-01T20:13:38.974Z,28.04
2022-08-01T20:16:05.308Z,28.05
2022-08-01T20:18:31.280Z,28.01
2022-08-01T20:20:57.294Z,27.93
2022-08-01T20:23:23.275Z,27.91
2022-08-01T20:25:49.257Z,27.76
2022-08-01T20:28:15.282Z,27.72
2022-08-01T20:30:41.257Z,27.73
2022-08-01T20:33:07.245Z,27.71
2022-08-01T20:35:53.550Z,27.77
2022-08-01T20:38:19.229Z,27.64
2022-08-01T20:40:49.094Z,27.67
2022-08-01T20:43:15.069Z,27.58
2022-08-01T20:45:41.035Z,27.49
2022-08-01T20:48:07.766Z,27.26
2022-08-01T20:50:52.908Z,27.38
2022-08-01T20:53:19.826Z,26.99
2022-08-01T20:55:45.821Z,27.13
2022-08-01T20:58:11.820Z,27.20
2022-08-01T21:00:37.884Z,27.17
2022-08-01T21:03:03.881Z,27.03
2022-08-01T21:05:29.856Z,27.05
2022-08-01T21:07:55.871Z,26.82
2022-08-01T21:10:23.282Z,26.81
2022-08-01T21:12:49.282Z,27.06
2022-08-01T21:15:15.310Z,26.96
2022-08-01T21:17:41.305Z,26.67
2022-08-01T21:20:07.274Z,26.64
2022-08-01T21:22:33.304Z,26.63
2022-08-01T21:24:59.285Z,26.77
2022-08-01T21:27:33.635Z,26.93
2022-08-01T21:30:00.116Z,26.97
2022-08-01T21:32:26.114Z,27.02
2022-08-01T21:34:55.398Z,26.93
2022-08-01T21:37:21.421Z,26.69
2022-08-01T21:39:47.388Z,26.51
2022-08-01T21:42:18.306Z,26.51
2022-08-01T21:44:45.115Z,26.55
2022-08-01T21:47:11.946Z,26.53
2022-08-01T21:49:38.983Z,26.48
2022-08-01T21:52:08.644Z,26.46
2022-08-01T21:54:35.041Z,26.17
2022-08-01T21:57:01.025Z,25.95
2022-08-01T21:59:27.058Z,25.99
2022-08-01T22:01:53.322Z,26.12
2022-08-01T22:04:19.478Z,26.01
2022-08-01T22:06:45.521Z,25.82
2022-08-01T22:09:11.514Z,25.82
2022-08-01T22:11:37.493Z,25.68
2022-08-01T22:14:23.498Z,25.67
2022-08-01T22:16:49.468Z,25.73
2022-08-01T22:19:43.882Z,25.83
2022-08-01T22:22:01.438Z,25.92
2022-08-01T22:24:29.755Z,25.96
2022-08-01T22:26:55.722Z,25.95
2022-08-01T22:29:22.265Z,25.92
2022-08-01T22:31:48.246Z,26.01
2022-08-01T22:34:14.247Z,26.05
2022-08-01T22:36:40.294Z,25.98
2022-08-01T22:39:06.275Z,25.85
2022-08-01T22:42:02.140Z,25.82
2022-08-01T22:44:18.248Z,25.78
2022-08-01T22:46:51.422Z,25.64
2022-08-01T22:49:17.459Z,25.36
2022-08-01T22:51:43.583Z,25.59
2022-08-01T22:54:19.481Z,25.52
2022-08-01T22:56:45.657Z,25.50
2022-08-01T22:59:11.636Z,25.38
2022-08-01T23:01:38.156Z,25.20
2022-08-01T23:04:05.171Z,25.26
2022-08-01T23:06:31.184Z,25.30
2022-08-01T23:08:57.154Z,25.50
2022-08-01T23:11:23.172Z,25.58
2022-08-01T23:13:49.162Z,25.70
2022-08-01T23:16:17.541Z,25.69
2022-08-01T23:18:45.979Z,25.74
2022-08-01T23:21:12.282Z,25.63
2022-08-01T23:23:38.253Z,25.50
2022-08-01T23:26:04.272Z,25.48
2022-08-01T23:28:30.240Z,25.64
2022-08-01T23:30:56.210Z,25.70
2022-08-01T23:33:22.422Z,25.81
2022-08-01T23:35:48.435Z,25.94
2022-08-01T23:38:14.413Z,25.85
2022-08-01T23:40:40.424Z,25.69
2022-08-01T23:43:08.339Z,25.76
2022-08-01T23:46:03.696Z,25.73
2022-08-01T23:48:28.644Z,25.81
2022-08-01T23:50:54.669Z,25.84
2022-08-01T23:53:21.318Z,25.83
2022-08-01T23:55:47.295Z,25.87
2022-08-01T23:58:14.087Z,25.85
